Time;durP1;ratioP1;P1;durP2;ratioP2;P2;SDS_P1;SDS_P2;PMS_P1;PMS_P2;Temp;Humidity;BMP_temperature;BMP_pressure;BME280_temperature;BME280_humidity;BME280_pressure;Samples;Min_cycle;Max_cycle;Signal;HPM_P1;HPM_P2
2023/04/16 00:02:18;;;;;;;47.17;23.92;;;8.60;99.90;;;;;;5012857;28;20567;-86
2023/04/16 00:04:44;;;;;;;53.10;25.98;;;8.60;99.90;;;;;;4998116;28;20041;-86
2023/04/16 00:07:09;;;;;;;42.53;21.50;;;8.70;99.90;;;;;;5001004;28;20578;-86
2023/04/16 00:09:35;;;;;;;47.42;24.27;;;8.60;99.90;;;;;;5003288;28;20045;-86
2023/04/16 00:12:01;;;;;;;56.25;26.27;;;8.60;99.90;;;;;;4996342;28;20053;-85
2023/04/16 00:14:26;;;;;;;45.42;23.33;;;8.60;99.90;;;;;;5012226;28;20065;-85
2023/04/16 00:16:52;;;;;;;51.17;25.33;;;8.60;99.90;;;;;;4992993;28;20054;-85
2023/04/16 00:19:18;;;;;;;58.45;27.95;;;8.60;99.90;;;;;;4989657;28;20121;-86
2023/04/16 00:21:43;;;;;;;53.47;24.90;;;8.60;99.90;;;;;;4989999;28;20710;-85
2023/04/16 00:24:09;;;;;;;51.35;23.98;;;8.60;99.90;;;;;;4982663;28;20667;-86
2023/04/16 00:26:35;;;;;;;47.08;25.83;;;8.60;99.90;;;;;;4982121;28;20042;-86
2023/04/16 00:29:00;;;;;;;39.08;23.38;;;8.60;99.90;;;;;;4995882;28;20053;-86
2023/04/16 00:31:31;;;;;;;48.40;24.17;;;8.50;99.90;;;;;;4993089;28;20727;-86
2023/04/16 00:33:57;;;;;;;49.65;25.17;;;8.60;99.90;;;;;;4992819;28;20139;-86
2023/04/16 00:36:23;;;;;;;60.55;25.95;;;8.60;99.90;;;;;;4990372;28;20200;-85
2023/04/16 00:38:50;;;;;;;51.30;25.13;;;8.50;99.90;;;;;;5005733;28;20045;-85
2023/04/16 00:41:15;;;;;;;57.85;25.08;;;8.50;99.90;;;;;;4988086;28;20047;-85
2023/04/16 00:43:41;;;;;;;53.78;25.88;;;8.50;99.90;;;;;;4986393;28;20112;-85
2023/04/16 00:46:07;;;;;;;46.58;23.25;;;8.50;99.90;;;;;;4993380;28;20549;-85
2023/04/16 00:48:35;;;;;;;44.58;24.42;;;8.50;99.90;;;;;;4989703;28;20069;-86
2023/04/16 00:51:04;;;;;;;54.45;26.75;;;8.50;99.90;;;;;;5008052;28;20058;-85
2023/04/16 00:53:30;;;;;;;58.03;24.83;;;8.50;99.90;;;;;;4986398;28;20099;-85
2023/04/16 00:55:56;;;;;;;60.92;28.55;;;8.40;99.90;;;;;;4988592;28;20048;-85
2023/04/16 00:58:22;;;;;;;64.47;29.40;;;8.40;99.90;;;;;;4986241;28;20046;-85
2023/04/16 01:00:48;;;;;;;67.35;29.33;;;8.40;99.90;;;;;;4993706;28;20066;-85
2023/04/16 01:03:13;;;;;;;64.47;28.23;;;8.40;99.90;;;;;;4987750;28;20242;-85
2023/04/16 01:05:39;;;;;;;62.88;29.85;;;8.40;99.90;;;;;;4995764;28;20137;-85
2023/04/16 01:08:05;;;;;;;55.97;26.40;;;8.40;99.90;;;;;;4991153;28;20041;-85
2023/04/16 01:10:31;;;;;;;54.45;28.35;;;8.40;99.90;;;;;;4991426;28;20076;-85
2023/04/16 01:12:56;;;;;;;43.30;24.27;;;8.40;99.90;;;;;;4986257;28;20047;-85
2023/04/16 01:15:22;;;;;;;72.03;28.35;;;8.40;99.90;;;;;;4992229;28;20053;-86
2023/04/16 01:17:48;;;;;;;61.80;26.73;;;8.40;99.90;;;;;;4986508;28;20049;-85
2023/04/16 01:20:14;;;;;;;55.78;25.52;;;8.40;99.90;;;;;;4982387;28;20046;-85
2023/04/16 01:22:39;;;;;;;55.60;26.20;;;8.60;99.90;;;;;;4987076;28;20200;-85
2023/04/16 01:25:05;;;;;;;60.63;28.75;;;8.40;99.90;;;;;;4988741;28;20037;-85
2023/04/16 01:27:31;;;;;;;61.80;26.80;;;8.40;99.90;;;;;;4986565;28;20371;-85
2023/04/16 01:29:57;;;;;;;63.88;29.20;;;8.40;99.90;;;;;;4980106;28;20057;-85
2023/04/16 01:32:23;;;;;;;54.78;28.13;;;8.40;99.90;;;;;;4990641;28;20042;-85
2023/04/16 01:34:48;;;;;;;55.38;26.48;;;8.40;99.90;;;;;;4984720;28;20050;-85
2023/04/16 01:37:15;;;;;;;63.42;30.35;;;8.40;99.90;;;;;;4982371;28;20043;-85
2023/04/16 01:39:40;;;;;;;57.80;29.30;;;8.40;99.90;;;;;;4986300;28;20124;-84
2023/04/16 01:42:06;;;;;;;52.10;28.13;;;8.40;99.90;;;;;;4989510;28;20049;-85
2023/04/16 01:44:32;;;;;;;54.70;28.02;;;8.40;99.90;;;;;;4985288;28;20778;-84
2023/04/16 01:46:57;;;;;;;54.25;27.48;;;8.40;99.90;;;;;;4983372;28;20045;-85
2023/04/16 01:49:23;;;;;;;64.57;29.60;;;8.40;99.90;;;;;;5007991;28;20038;-85
2023/04/16 01:51:49;;;;;;;53.40;27.85;;;8.40;99.90;;;;;;4992588;28;20038;-85
2023/04/16 01:54:15;;;;;;;66.20;30.13;;;8.40;99.90;;;;;;4980504;28;20787;-85
2023/04/16 01:56:40;;;;;;;52.08;27.48;;;8.40;99.90;;;;;;5000649;28;20030;-85
2023/04/16 01:59:06;;;;;;;63.40;29.33;;;8.30;99.90;;;;;;4994334;28;20491;-85
2023/04/16 02:01:31;;;;;;;62.13;27.85;;;8.40;99.90;;;;;;4992062;28;20103;-85
2023/04/16 02:03:57;;;;;;;50.33;27.70;;;8.30;99.90;;;;;;4995063;28;20084;-85
2023/04/16 02:06:23;;;;;;;52.25;25.95;;;8.30;99.90;;;;;;4991518;28;20709;-85
2023/04/16 02:08:48;;;;;;;54.22;26.52;;;8.30;99.90;;;;;;4989910;28;20050;-85
2023/04/16 02:11:14;;;;;;;55.20;28.67;;;8.30;99.90;;;;;;4990188;28;20046;-85
2023/04/16 02:13:40;;;;;;;47.30;26.85;;;8.30;99.90;;;;;;4995274;28;20072;-85
2023/04/16 02:16:06;;;;;;;56.40;28.83;;;8.30;99.90;;;;;;4990930;28;20778;-84
2023/04/16 02:18:31;;;;;;;51.33;28.27;;;8.30;99.90;;;;;;4982792;28;20105;-85
2023/04/16 02:21:01;;;;;;;52.70;28.13;;;8.30;99.90;;;;;;4993529;28;20042;-85
2023/04/16 02:23:29;;;;;;;44.40;24.20;;;8.30;99.90;;;;;;4995448;28;20046;-84
2023/04/16 02:25:55;;;;;;;49.97;25.17;;;8.30;99.90;;;;;;4989619;28;20511;-85
2023/04/16 02:28:20;;;;;;;44.92;25.42;;;8.30;99.90;;;;;;4993616;28;20041;-84
2023/04/16 02:30:46;;;;;;;45.78;24.38;;;8.30;99.90;;;;;;4999057;28;20116;-85
2023/04/16 02:33:12;;;;;;;42.03;24.63;;;8.30;99.90;;;;;;4989175;28;20070;-84
2023/04/16 02:35:39;;;;;;;46.13;24.85;;;8.30;99.90;;;;;;4985960;28;20772;-84
2023/04/16 02:38:05;;;;;;;43.55;25.33;;;8.30;99.90;;;;;;4987386;28;20037;-84
2023/04/16 02:40:31;;;;;;;50.53;27.17;;;8.30;99.90;;;;;;5013687;28;20037;-84
2023/04/16 02:42:57;;;;;;;55.03;28.05;;;8.30;99.90;;;;;;4988642;28;20046;-85
2023/04/16 02:45:30;;;;;;;43.10;23.88;;;8.30;99.90;;;;;;4992951;28;20046;-84
2023/04/16 02:47:56;;;;;;;52.67;26.38;;;8.30;99.90;;;;;;4996298;28;20133;-84
2023/04/16 02:50:21;;;;;;;44.83;25.42;;;8.30;99.90;;;;;;4996116;28;20045;-84
2023/04/16 02:52:47;;;;;;;55.58;28.05;;;8.30;99.90;;;;;;4990184;28;20368;-85
2023/04/16 02:55:13;;;;;;;49.17;26.92;;;8.30;99.90;;;;;;4989480;28;20831;-84
2023/04/16 02:57:38;;;;;;;53.42;25.73;;;8.30;99.90;;;;;;4987306;28;20043;-84
2023/04/16 03:00:05;;;;;;;49.13;24.95;;;8.30;99.90;;;;;;4993418;28;20030;-84
2023/04/16 03:02:30;;;;;;;47.72;24.52;;;8.30;99.90;;;;;;4989721;28;20050;-84
2023/04/16 03:04:56;;;;;;;56.97;27.88;;;8.30;99.90;;;;;;4988035;28;20057;-84
2023/04/16 03:07:21;;;;;;;52.08;26.17;;;8.30;99.90;;;;;;4984412;28;20052;-84
2023/04/16 03:09:47;;;;;;;50.30;25.98;;;8.30;99.90;;;;;;4989692;28;20056;-84
2023/04/16 03:12:13;;;;;;;57.17;28.42;;;8.30;99.90;;;;;;4990878;28;20652;-84
2023/04/16 03:14:38;;;;;;;61.30;28.90;;;8.30;99.90;;;;;;4990435;28;20057;-84
2023/04/16 03:17:04;;;;;;;54.97;27.40;;;8.30;99.90;;;;;;4987718;28;20484;-84
2023/04/16 03:19:30;;;;;;;58.35;28.02;;;8.40;99.90;;;;;;4991284;28;20187;-84
2023/04/16 03:21:55;;;;;;;61.70;30.90;;;8.30;99.90;;;;;;4985819;28;20053;-84
2023/04/16 03:24:21;;;;;;;63.55;31.25;;;8.30;99.90;;;;;;4995904;28;20095;-84
2023/04/16 03:26:47;;;;;;;69.10;31.55;;;8.30;99.90;;;;;;4991617;28;20050;-84
2023/04/16 03:29:12;;;;;;;71.00;32.33;;;8.30;99.90;;;;;;4989786;28;20034;-84
2023/04/16 03:31:38;;;;;;;46.85;26.25;;;8.30;99.90;;;;;;4989209;28;20072;-84
2023/04/16 03:34:03;;;;;;;61.75;30.13;;;8.30;99.90;;;;;;4986201;28;20535;-83
2023/04/16 03:36:29;;;;;;;68.95;31.00;;;8.30;99.90;;;;;;4988920;28;20104;-84
2023/04/16 03:38:55;;;;;;;70.07;33.78;;;8.30;99.90;;;;;;4992050;28;20096;-84
2023/04/16 03:41:21;;;;;;;68.32;29.45;;;8.30;99.90;;;;;;4985281;28;20121;-84
2023/04/16 03:43:46;;;;;;;66.88;32.22;;;8.30;99.90;;;;;;4990116;28;20049;-84
2023/04/16 03:46:12;;;;;;;69.03;32.38;;;8.30;99.90;;;;;;4980990;28;20733;-84
2023/04/16 03:48:37;;;;;;;54.53;27.50;;;8.30;99.90;;;;;;4984655;28;20042;-84
2023/04/16 03:51:03;;;;;;;60.95;30.08;;;8.30;99.90;;;;;;4988724;28;20377;-84
2023/04/16 03:53:29;;;;;;;48.97;24.92;;;8.30;99.90;;;;;;4985843;28;20088;-84
2023/04/16 03:55:55;;;;;;;66.00;30.77;;;8.30;99.90;;;;;;4978854;28;20046;-84
2023/04/16 03:58:20;;;;;;;65.20;29.77;;;8.30;99.90;;;;;;4983841;28;20030;-84
2023/04/16 04:00:46;;;;;;;59.10;28.20;;;8.30;99.90;;;;;;4993977;28;20499;-84
2023/04/16 04:03:15;;;;;;;60.22;26.48;;;8.30;99.90;;;;;;4980258;28;20053;-83
2023/04/16 04:05:41;;;;;;;54.20;28.40;;;8.30;99.90;;;;;;4992717;28;20767;-83
2023/04/16 04:08:08;;;;;;;51.00;26.25;;;8.30;99.90;;;;;;4988113;28;20373;-84
2023/04/16 04:10:34;;;;;;;63.22;28.73;;;8.30;99.90;;;;;;4992372;28;20066;-83
2023/04/16 04:13:03;;;;;;;64.65;27.88;;;8.30;99.90;;;;;;4996597;28;20100;-83
2023/04/16 04:15:28;;;;;;;59.28;27.98;;;8.30;99.90;;;;;;5007236;28;20061;-84
2023/04/16 04:17:54;;;;;;;69.95;27.67;;;8.30;99.90;;;;;;4997552;28;20594;-84
2023/04/16 04:20:20;;;;;;;56.00;27.25;;;8.30;99.90;;;;;;4981041;28;20050;-84
2023/04/16 04:22:46;;;;;;;50.33;25.73;;;8.30;99.90;;;;;;4999842;28;20049;-84
2023/04/16 04:25:12;;;;;;;61.47;26.15;;;8.30;99.90;;;;;;4998248;28;20080;-84
2023/04/16 04:27:38;;;;;;;58.28;27.08;;;8.30;99.90;;;;;;4999038;28;20041;-83
2023/04/16 04:30:04;;;;;;;60.80;26.52;;;8.30;99.90;;;;;;4996893;28;20593;-84
2023/04/16 04:32:30;;;;;;;63.10;26.25;;;8.30;99.90;;;;;;5015052;28;20037;-83
2023/04/16 04:34:56;;;;;;;56.35;25.33;;;8.30;99.90;;;;;;4982712;28;20391;-83
2023/04/16 04:37:22;;;;;;;57.72;26.75;;;8.30;99.90;;;;;;5015264;28;20046;-83
2023/04/16 04:39:47;;;;;;;56.80;26.38;;;8.30;99.90;;;;;;4997444;28;20249;-84
2023/04/16 04:42:17;;;;;;;47.70;22.90;;;8.30;99.90;;;;;;4998815;28;20118;-84
2023/04/16 04:44:43;;;;;;;60.63;27.00;;;8.30;99.90;;;;;;4997176;28;20049;-83
2023/04/16 04:47:08;;;;;;;53.20;25.92;;;8.30;99.90;;;;;;4998681;28;20553;-84
2023/04/16 04:49:34;;;;;;;64.50;29.75;;;8.30;99.90;;;;;;4998851;28;20045;-83
2023/04/16 04:52:00;;;;;;;68.35;27.85;;;8.30;99.90;;;;;;4997437;28;20693;-84
2023/04/16 04:54:27;;;;;;;66.85;27.33;;;8.40;99.90;;;;;;4995563;28;20099;-83
2023/04/16 04:56:55;;;;;;;61.78;29.10;;;8.30;99.90;;;;;;5016424;28;20483;-83
2023/04/16 04:59:22;;;;;;;68.00;28.25;;;8.30;99.90;;;;;;5016116;28;20030;-84
2023/04/16 05:01:47;;;;;;;60.10;26.67;;;8.30;99.90;;;;;;4998371;28;20077;-83
2023/04/16 05:04:13;;;;;;;59.78;26.10;;;8.30;99.90;;;;;;4996217;28;20140;-84
2023/04/16 05:06:39;;;;;;;72.38;27.65;;;8.30;99.90;;;;;;5014973;28;20044;-83
2023/04/16 05:09:04;;;;;;;56.58;27.23;;;8.30;99.90;;;;;;4997557;28;20041;-83
2023/04/16 05:11:32;;;;;;;66.10;26.15;;;8.30;99.90;;;;;;5030546;28;20041;-83
2023/04/16 05:13:58;;;;;;;58.33;26.45;;;8.30;99.90;;;;;;4997492;28;20128;-83
2023/04/16 05:16:23;;;;;;;55.28;24.70;;;8.30;99.90;;;;;;5011561;28;20053;-84
2023/04/16 05:18:49;;;;;;;58.78;27.23;;;8.30;99.90;;;;;;4977690;28;20757;-84
2023/04/16 05:21:15;;;;;;;48.30;24.05;;;8.30;99.90;;;;;;4977312;28;20503;-83
2023/04/16 05:23:40;;;;;;;63.70;27.10;;;8.30;99.90;;;;;;4986588;28;20050;-83
2023/04/16 05:26:06;;;;;;;61.78;25.75;;;8.30;99.90;;;;;;4986167;28;20352;-84
2023/04/16 05:28:32;;;;;;;61.60;25.65;;;8.30;99.90;;;;;;4995108;28;20680;-84
2023/04/16 05:30:58;;;;;;;55.22;25.83;;;8.40;99.90;;;;;;4991444;28;20054;-84
2023/04/16 05:33:24;;;;;;;52.83;25.15;;;8.40;99.90;;;;;;4995227;28;20045;-81
2023/04/16 05:35:49;;;;;;;58.58;25.70;;;8.30;99.90;;;;;;4979290;28;20797;-82
2023/04/16 05:38:15;;;;;;;54.75;26.40;;;8.30;99.90;;;;;;5001194;28;20464;-81
2023/04/16 05:40:41;;;;;;;64.18;26.45;;;8.30;99.90;;;;;;4996919;28;20136;-82
2023/04/16 05:43:07;;;;;;;55.05;26.02;;;8.30;99.90;;;;;;4990704;28;20141;-83
2023/04/16 05:45:38;;;;;;;57.67;26.08;;;8.30;99.90;;;;;;4981511;28;20042;-82
2023/04/16 05:48:05;;;;;;;64.63;25.02;;;8.30;99.90;;;;;;4981047;28;20598;-83
2023/04/16 05:50:30;;;;;;;57.78;25.67;;;8.30;99.90;;;;;;4975438;28;20042;-81
2023/04/16 05:52:56;;;;;;;70.78;26.05;;;8.30;99.90;;;;;;4994677;28;20476;-82
2023/04/16 05:55:22;;;;;;;60.15;25.60;;;8.30;99.90;;;;;;4997165;28;20041;-85
2023/04/16 05:57:48;;;;;;;56.92;24.88;;;8.70;99.90;;;;;;4998148;28;20049;-83
2023/04/16 06:00:14;;;;;;;62.63;26.67;;;8.30;99.90;;;;;;4982735;28;21995;-82
2023/04/16 06:02:42;;;;;;;54.95;25.45;;;8.30;99.90;;;;;;4987615;28;20046;-82
2023/04/16 06:05:08;;;;;;;54.40;25.73;;;8.30;99.90;;;;;;4980371;28;20049;-82
2023/04/16 06:07:34;;;;;;;51.10;24.73;;;8.40;99.90;;;;;;4986501;28;20053;-83
2023/04/16 06:09:59;;;;;;;50.40;23.98;;;8.40;99.90;;;;;;4999344;28;20129;-82
2023/04/16 06:12:26;;;;;;;55.53;24.85;;;8.40;99.90;;;;;;5005483;28;20042;-83
2023/04/16 06:14:51;;;;;;;57.47;24.05;;;8.40;99.90;;;;;;4995449;28;20159;-83
2023/04/16 06:17:18;;;;;;;55.47;24.00;;;8.40;99.90;;;;;;4997725;28;20085;-83
2023/04/16 06:19:44;;;;;;;43.63;22.50;;;8.40;99.90;;;;;;4994613;28;20046;-83
2023/04/16 06:22:13;;;;;;;50.33;24.05;;;9.00;99.90;;;;;;4996301;28;20552;-83
2023/04/16 06:24:39;;;;;;;57.97;24.17;;;8.90;99.90;;;;;;5010094;28;20048;-84
2023/04/16 06:27:05;;;;;;;51.92;25.48;;;8.40;99.90;;;;;;4989403;28;20586;-82
2023/04/16 06:29:31;;;;;;;55.72;26.52;;;8.50;99.90;;;;;;4982206;28;20046;-82
2023/04/16 06:31:56;;;;;;;53.28;24.75;;;8.50;99.90;;;;;;4974375;28;20050;-82
2023/04/16 06:34:22;;;;;;;55.65;23.92;;;8.50;99.90;;;;;;4995282;28;20033;-83
2023/04/16 06:36:48;;;;;;;60.00;24.00;;;8.50;99.90;;;;;;4979690;28;20404;-84
2023/04/16 06:39:14;;;;;;;65.85;25.95;;;8.50;99.90;;;;;;4980933;28;20088;-83
2023/04/16 06:41:40;;;;;;;56.72;25.23;;;8.60;99.90;;;;;;4994623;28;20037;-82
2023/04/16 06:44:05;;;;;;;49.97;24.30;;;8.60;99.90;;;;;;4999186;28;20476;-81
2023/04/16 06:46:31;;;;;;;46.58;22.30;;;8.50;99.90;;;;;;4996260;28;20037;-82
2023/04/16 06:48:59;;;;;;;56.50;24.48;;;8.60;99.90;;;;;;4981573;28;20042;-82
2023/04/16 06:51:25;;;;;;;53.50;24.40;;;8.50;99.90;;;;;;4991118;28;20037;-83
2023/04/16 06:53:54;;;;;;;43.42;23.95;;;8.60;99.90;;;;;;4984802;28;20038;-82
2023/04/16 06:56:20;;;;;;;43.38;23.13;;;8.60;99.90;;;;;;4996583;28;20046;-82
2023/04/16 06:58:46;;;;;;;44.75;23.10;;;8.60;99.90;;;;;;4985571;28;20368;-81
2023/04/16 07:01:12;;;;;;;50.28;22.42;;;8.60;99.90;;;;;;4982651;28;20038;-81
2023/04/16 07:03:37;;;;;;;51.50;23.05;;;8.60;99.90;;;;;;4978736;28;20121;-82
2023/04/16 07:06:03;;;;;;;45.75;22.20;;;8.60;99.90;;;;;;4988697;28;20057;-86
2023/04/16 07:08:29;;;;;;;41.95;22.00;;;8.70;99.90;;;;;;4981380;28;20563;-85
2023/04/16 07:10:55;;;;;;;43.00;22.05;;;8.70;99.90;;;;;;4997968;28;20049;-85
2023/04/16 07:13:20;;;;;;;47.30;21.50;;;8.70;99.90;;;;;;4998906;28;20054;-84
2023/04/16 07:15:47;;;;;;;42.17;21.40;;;8.80;99.90;;;;;;4993248;28;20058;-84
2023/04/16 07:18:15;;;;;;;44.75;22.63;;;8.70;99.90;;;;;;5001402;28;20676;-84
2023/04/16 07:20:44;;;;;;;51.30;23.83;;;8.80;99.90;;;;;;5001969;28;20044;-85
2023/04/16 07:23:10;;;;;;;45.33;21.10;;;8.80;99.90;;;;;;5010736;28;20073;-85
2023/04/16 07:25:36;;;;;;;47.03;21.90;;;8.90;99.90;;;;;;4999488;28;20851;-85
2023/04/16 07:28:02;;;;;;;48.63;23.00;;;8.90;99.90;;;;;;4996371;28;20084;-84
2023/04/16 07:30:33;;;;;;;46.03;22.80;;;8.90;99.90;;;;;;5013846;28;20041;-84
2023/04/16 07:33:02;;;;;;;58.25;23.52;;;8.90;99.90;;;;;;5008755;28;20838;-85
2023/04/16 07:35:31;;;;;;;52.03;24.10;;;9.00;99.90;;;;;;5000676;28;20078;-85
2023/04/16 07:37:57;;;;;;;42.97;22.35;;;9.00;99.90;;;;;;4989364;28;20070;-84
2023/04/16 07:40:25;;;;;;;39.90;21.95;;;9.00;99.90;;;;;;5002849;28;20046;-85
2023/04/16 07:42:51;;;;;;;53.05;23.30;;;9.10;99.90;;;;;;4990943;28;20042;-84
2023/04/16 07:45:17;;;;;;;46.83;20.63;;;9.20;99.90;;;;;;5001123;28;20144;-83
2023/04/16 07:47:44;;;;;;;53.58;21.83;;;9.20;99.90;;;;;;5012955;28;20153;-82
2023/04/16 07:50:10;;;;;;;47.70;21.80;;;9.20;99.90;;;;;;4999998;28;20050;-84
2023/04/16 07:52:40;;;;;;;49.53;22.45;;;9.30;99.90;;;;;;5017471;28;20045;-85
2023/04/16 07:55:06;;;;;;;46.08;21.67;;;9.30;99.90;;;;;;5017541;28;20539;-82
2023/04/16 07:57:32;;;;;;;37.85;19.15;;;9.30;99.90;;;;;;4999804;28;20052;-83
2023/04/16 08:00:00;;;;;;;48.45;20.88;;;9.30;99.90;;;;;;5000176;28;20427;-85
2023/04/16 08:02:26;;;;;;;43.33;20.73;;;9.40;99.90;;;;;;5011648;28;20046;-84
2023/04/16 08:04:52;;;;;;;44.60;20.58;;;9.40;99.90;;;;;;5003240;28;20125;-84
2023/04/16 08:07:19;;;;;;;39.47;18.80;;;9.50;99.90;;;;;;5016424;28;20056;-84
2023/04/16 08:09:52;;;;;;;42.78;19.33;;;9.60;99.90;;;;;;5008938;28;20123;-84
2023/04/16 08:12:18;;;;;;;46.78;19.77;;;9.60;99.90;;;;;;4997887;28;20049;-84
2023/04/16 08:14:45;;;;;;;38.95;18.50;;;9.70;99.90;;;;;;5001770;28;20472;-83
2023/04/16 08:17:12;;;;;;;37.35;17.95;;;9.70;99.90;;;;;;5011911;28;20042;-83
2023/04/16 08:19:38;;;;;;;47.30;19.13;;;9.70;99.90;;;;;;5002935;28;20437;-85
2023/04/16 08:22:05;;;;;;;44.83;18.67;;;9.70;99.90;;;;;;5018495;28;20214;-85
2023/04/16 08:24:31;;;;;;;40.78;20.13;;;9.80;99.90;;;;;;4980587;28;20667;-89
2023/04/16 08:26:57;;;;;;;48.03;19.20;;;9.90;99.90;;;;;;5006939;28;20084;-83
2023/04/16 08:29:25;;;;;;;39.25;18.80;;;9.90;99.90;;;;;;4994984;28;20140;-84
2023/04/16 08:31:52;;;;;;;37.53;19.25;;;10.00;99.90;;;;;;5010406;28;21283;-84
2023/04/16 08:34:18;;;;;;;42.10;20.02;;;10.10;99.90;;;;;;5010215;28;20791;-85
2023/04/16 08:36:44;;;;;;;48.60;19.15;;;10.20;99.90;;;;;;5010080;28;20563;-82
2023/04/16 08:39:12;;;;;;;39.85;19.23;;;10.20;99.90;;;;;;4985136;28;20055;-85
2023/04/16 08:41:41;;;;;;;41.38;19.98;;;10.30;99.90;;;;;;4992482;28;20042;-84
2023/04/16 08:44:10;;;;;;;38.80;20.60;;;10.40;99.90;;;;;;5000673;28;20088;-84
2023/04/16 08:46:37;;;;;;;36.45;18.63;;;10.50;99.90;;;;;;5006620;28;20228;-82
2023/04/16 08:49:06;;;;;;;45.00;19.45;;;10.60;99.90;;;;;;5004040;28;20659;-83
2023/04/16 08:51:35;;;;;;;36.78;17.88;;;10.70;99.90;;;;;;5014967;28;20041;-88
2023/04/16 08:54:08;;;;;;;41.20;18.52;;;10.70;99.90;;;;;;5015778;28;20053;-85
2023/04/16 08:56:40;;;;;;;45.83;19.33;;;10.80;99.90;;;;;;5006474;28;20127;-83
2023/04/16 08:59:08;;;;;;;38.13;18.15;;;10.90;99.90;;;;;;4999623;28;20038;-87
2023/04/16 09:01:34;;;;;;;39.67;19.13;;;11.00;99.90;;;;;;5000409;28;20045;-86
2023/04/16 09:04:03;;;;;;;47.60;19.42;;;11.00;99.90;;;;;;4999580;28;20060;-84
2023/04/16 09:06:30;;;;;;;39.60;18.67;;;11.10;99.90;;;;;;5012645;28;20128;-84
2023/04/16 09:08:58;;;;;;;38.38;19.58;;;11.20;99.90;;;;;;4998924;28;20496;-84
2023/04/16 09:11:25;;;;;;;38.35;17.80;;;11.20;99.90;;;;;;4990774;28;20037;-85
2023/04/16 09:13:52;;;;;;;35.00;16.95;;;11.30;99.90;;;;;;5010499;28;20056;-87
2023/04/16 09:16:19;;;;;;;34.85;17.60;;;11.40;99.90;;;;;;5017067;28;20057;-86
2023/04/16 09:18:46;;;;;;;34.15;16.42;;;11.40;99.90;;;;;;4985059;28;20575;-86
2023/04/16 09:21:12;;;;;;;29.38;17.33;;;11.50;99.90;;;;;;5013474;28;20163;-85
2023/04/16 09:23:39;;;;;;;32.42;17.25;;;11.60;99.90;;;;;;5000227;28;20120;-86
2023/04/16 09:26:14;;;;;;;28.92;16.05;;;11.70;99.90;;;;;;5001945;28;20862;-86
2023/04/16 09:28:40;;;;;;;31.55;16.65;;;11.70;99.90;;;;;;5000928;28;20103;-87
2023/04/16 09:31:14;;;;;;;28.08;15.98;;;11.80;99.90;;;;;;5000964;28;20728;-87
2023/04/16 09:33:44;;;;;;;37.65;16.75;;;11.80;99.90;;;;;;5003802;28;20048;-88
2023/04/16 09:36:10;;;;;;;33.30;16.73;;;11.90;99.90;;;;;;5000995;28;20099;-85
2023/04/16 09:38:50;;;;;;;29.05;15.30;;;11.90;99.90;;;;;;5013194;28;20575;-84
2023/04/16 09:41:16;;;;;;;28.02;15.45;;;12.00;99.90;;;;;;4990433;28;20046;-87
2023/04/16 09:43:56;;;;;;;26.83;14.95;;;12.00;99.90;;;;;;5000066;28;20047;-86
2023/04/16 09:46:41;;;;;;;35.08;16.83;;;12.20;99.90;;;;;;5000269;28;20571;-87
2023/04/16 09:49:17;;;;;;;37.28;16.75;;;12.40;99.90;;;;;;5012253;28;20140;-85
2023/04/16 09:51:46;;;;;;;32.05;17.45;;;12.50;99.90;;;;;;5009992;28;20049;-87
2023/04/16 09:54:12;;;;;;;28.30;14.57;;;12.60;99.90;;;;;;5011188;28;20506;-88
2023/04/16 09:56:42;;;;;;;26.15;15.77;;;12.70;99.90;;;;;;5013570;28;20041;-88
2023/04/16 09:59:15;;;;;;;26.30;14.98;;;12.70;99.90;;;;;;4993221;28;20128;-88
2023/04/16 10:01:42;;;;;;;22.38;14.38;;;12.70;99.90;;;;;;5008838;28;20069;-88
2023/04/16 10:04:14;;;;;;;28.00;15.18;;;12.80;99.90;;;;;;5007578;28;20033;-88
2023/04/16 10:06:45;;;;;;;25.70;15.73;;;12.90;99.90;;;;;;4988066;28;20513;-91
2023/04/16 10:09:11;;;;;;;23.42;14.93;;;12.90;99.90;;;;;;4996723;28;20046;-86
2023/04/16 10:11:37;;;;;;;22.17;14.77;;;13.00;99.90;;;;;;4991512;28;20046;-89
2023/04/16 10:14:02;;;;;;;27.00;14.95;;;13.10;99.90;;;;;;4981151;28;20618;-86
2023/04/16 10:16:31;;;;;;;31.77;14.98;;;13.20;99.90;;;;;;5005998;28;20045;-90
2023/04/16 10:18:57;;;;;;;22.13;13.43;;;13.30;99.90;;;;;;5001827;28;20073;-91
2023/04/16 10:21:23;;;;;;;26.75;14.50;;;13.40;99.90;;;;;;4996598;28;20049;-88
2023/04/16 10:23:51;;;;;;;21.80;13.90;;;13.50;99.90;;;;;;5006227;28;20057;-88
2023/04/16 10:26:17;;;;;;;20.30;14.38;;;13.60;99.90;;;;;;5014510;28;20556;-88
2023/04/16 10:28:44;;;;;;;24.00;14.52;;;13.70;99.90;;;;;;5001090;28;20103;-88
2023/04/16 10:31:11;;;;;;;22.98;14.63;;;13.70;99.90;;;;;;4992688;28;20038;-88
2023/04/16 10:33:43;;;;;;;23.27;14.68;;;13.80;99.90;;;;;;5010638;28;21448;-87
2023/04/16 10:36:22;;;;;;;27.63;14.52;;;13.90;99.90;;;;;;5002217;28;20050;-88
2023/04/16 10:38:53;;;;;;;27.42;14.70;;;13.80;99.90;;;;;;5000173;28;20052;-88
2023/04/16 10:41:20;;;;;;;24.77;14.25;;;13.90;99.90;;;;;;5000499;28;20044;-87
2023/04/16 10:43:47;;;;;;;23.00;13.65;;;14.00;99.90;;;;;;5013792;28;20143;-88
2023/04/16 10:46:30;;;;;;;23.98;14.68;;;14.20;99.90;;;;;;5017058;28;20817;-90
2023/04/16 10:49:00;;;;;;;20.13;12.65;;;14.30;99.90;;;;;;4997917;28;20468;-88
2023/04/16 10:51:31;;;;;;;22.85;14.68;;;14.30;99.90;;;;;;5011007;28;20038;-88
2023/04/16 10:54:02;;;;;;;26.58;14.93;;;14.20;99.90;;;;;;5001409;28;20056;-89
2023/04/16 10:56:32;;;;;;;25.45;13.90;;;14.30;99.90;;;;;;5007505;28;20123;-93
2023/04/16 10:58:58;;;;;;;23.35;13.73;;;14.20;99.90;;;;;;5015929;28;20068;-94
2023/04/16 11:01:42;;;;;;;21.27;14.38;;;14.20;99.90;;;;;;5006326;28;20089;-93
2023/04/16 11:04:20;;;;;;;20.55;13.52;;;14.20;99.90;;;;;;4992637;28;20064;-93
2023/04/16 11:07:12;;;;;;;17.48;12.98;;;14.30;99.90;;;;;;5019879;28;20572;-93
2023/04/16 11:10:02;;;;;;;26.52;14.77;;;14.40;99.90;;;;;;5003878;28;20049;-93
2023/04/16 11:12:45;;;;;;;27.17;14.82;;;14.50;99.90;;;;;;5012022;28;20464;-89
2023/04/16 11:15:21;;;;;;;24.88;13.85;;;14.50;99.90;;;;;;5001942;28;20053;-88
2023/04/16 11:17:50;;;;;;;23.77;13.40;;;14.50;99.90;;;;;;4998192;28;20058;-88
2023/04/16 11:20:21;;;;;;;21.08;12.73;;;14.50;99.90;;;;;;5026001;28;20045;-89
2023/04/16 11:22:52;;;;;;;22.42;14.00;;;14.40;99.90;;;;;;5000680;28;20809;-92
2023/04/16 11:25:28;;;;;;;23.40;13.45;;;14.30;99.90;;;;;;5005723;28;20057;-87
2023/04/16 11:28:00;;;;;;;25.48;14.82;;;14.40;99.90;;;;;;4998532;28;20054;-88
2023/04/16 11:30:34;;;;;;;26.05;14.35;;;14.30;99.90;;;;;;5013645;28;20119;-88
2023/04/16 11:33:18;;;;;;;30.45;14.98;;;14.30;99.90;;;;;;5013674;28;20041;-89
2023/04/16 11:35:44;;;;;;;24.13;15.57;;;14.30;99.90;;;;;;5012347;28;20048;-88
2023/04/16 11:38:13;;;;;;;23.45;14.93;;;14.20;99.90;;;;;;5000346;28;20049;-91
2023/04/16 11:40:41;;;;;;;23.38;14.48;;;14.30;99.90;;;;;;4985459;28;20081;-92
2023/04/16 11:43:15;;;;;;;24.13;14.65;;;14.40;99.90;;;;;;4992796;28;20042;-91
2023/04/16 11:45:58;;;;;;;29.05;15.30;;;14.40;99.90;;;;;;5016810;28;20161;-90
2023/04/16 11:48:25;;;;;;;25.80;14.02;;;14.50;99.90;;;;;;5018811;28;20072;-91
2023/04/16 11:51:02;;;;;;;25.45;14.95;;;14.60;99.90;;;;;;5010275;28;20491;-90
2023/04/16 11:53:28;;;;;;;26.38;14.50;;;14.60;99.90;;;;;;5014353;28;20148;-90
2023/04/16 11:55:54;;;;;;;28.48;14.85;;;14.60;99.90;;;;;;5002333;28;20053;-87
2023/04/16 11:58:21;;;;;;;36.80;14.40;;;14.60;99.90;;;;;;5005943;28;20037;-86
2023/04/16 12:00:48;;;;;;;26.30;14.38;;;14.60;99.90;;;;;;5002849;28;20889;-86
2023/04/16 12:03:14;;;;;;;25.20;14.57;;;14.70;99.90;;;;;;4988039;28;20155;-86
2023/04/16 12:05:40;;;;;;;30.70;15.18;;;14.70;99.90;;;;;;5012274;28;20131;-87
2023/04/16 12:08:08;;;;;;;27.42;15.27;;;14.80;99.90;;;;;;5013702;28;20053;-86
2023/04/16 12:10:36;;;;;;;30.75;15.77;;;14.80;99.90;;;;;;4990364;28;20042;-86
2023/04/16 12:13:16;;;;;;;28.00;14.95;;;14.80;99.90;;;;;;5008767;28;20081;-87
2023/04/16 12:15:52;;;;;;;27.00;15.55;;;14.80;99.90;;;;;;5014128;28;20053;-86
2023/04/16 12:18:21;;;;;;;26.10;15.25;;;14.80;99.90;;;;;;4991061;28;20448;-87
2023/04/16 12:20:47;;;;;;;27.45;15.85;;;14.80;99.90;;;;;;5000282;28;20050;-87
2023/04/16 12:23:29;;;;;;;25.98;15.38;;;15.00;99.90;;;;;;4985936;28;20313;-86
2023/04/16 12:26:01;;;;;;;24.80;15.80;;;14.90;99.90;;;;;;5000969;28;20053;-86
2023/04/16 12:28:29;;;;;;;30.88;16.58;;;14.90;99.90;;;;;;5014851;28;20045;-87
2023/04/16 12:30:54;;;;;;;29.15;15.75;;;14.90;99.90;;;;;;5004701;28;20599;-87
2023/04/16 12:33:20;;;;;;;23.80;16.35;;;14.80;99.90;;;;;;5012810;28;20046;-87
2023/04/16 12:35:46;;;;;;;30.05;16.80;;;14.70;99.90;;;;;;4997314;28;20937;-86